Ken Boothe Sr — WDG3360 — position and weather

sailwx.info

Track history (hours):
 
Tides and Currents Weather Stations Pressure Air Temp Water Temp Dewpoint Dewpoint Depression Visibility Wind Speed Wind Dir Waves Ship Positions

Ken Boothe Sr

Owner: AMERICAN STEAMSHIP COMPANY, WILLIAMSVILLE, NY. More information available from US FCC via Universal Licensing System and Coast Guard Vessel Documentation Center.

Last reported at 2016-Aug-26 18:30 UTC. Time now 2016-Aug-27 11:44 UTC.
Position N 45°52' W 085°09'.

Length 30 m; draft 8.8 m.

Type: Towing. MMSI: 367525230.

Date/timePositionNaut miles runAvg speedWind from/ knotsBaromVisibWave heightAir tempDewpointWater temp
2016-Aug-26 18:30N 45°52' W 085°09'1210.7
2016-Aug-26 17:23N 45°50' W 084°52'293 7.0
2016-Aug-24 23:33N 46°48' W 091°47'1010.4
2016-Aug-24 22:33N 46°43' W 091°60'1 1.2
2016-Aug-24 21:33N 46°42' W 092°01'0 0.0
2016-Aug-24 20:33N 46°42' W 092°01'0 0.0
2016-Aug-24 19:33N 46°42' W 092°01'0 0.0
2016-Aug-24 18:33N 46°42' W 092°01'0 0.0
2016-Aug-24 17:33N 46°42' W 092°01'0 0.0
2016-Aug-24 16:33N 46°42' W 092°01'0 0.0
2016-Aug-24 15:33N 46°42' W 092°01'0 0.0
2016-Aug-24 14:33N 46°42' W 092°01'0 0.0
2016-Aug-24 13:33N 46°42' W 092°01'0 0.0
2016-Aug-24 12:33N 46°42' W 092°01'0 0.0
2016-Aug-24 11:33N 46°42' W 092°01'0 0.0
2016-Aug-24 10:33N 46°42' W 092°01'0 0.0
2016-Aug-24 09:33N 46°42' W 092°01'0 0.0
2016-Aug-24 08:33N 46°42' W 092°01'0 0.1
2016-Aug-24 07:33N 46°42' W 092°01'2 2.2
2016-Aug-24 06:33N 46°43' W 091°58'0 0.0
2016-Aug-24 04:32N 46°43' W 091°58'0 0.0
2016-Aug-24 03:33N 46°43' W 091°58'0 0.0
2016-Aug-24 02:33N 46°43' W 091°58'0 0.0
2016-Aug-24 01:33N 46°43' W 091°58'0 0.0
2016-Aug-24 00:33N 46°43' W 091°58'0 0.0
2016-Aug-23 23:33N 46°43' W 091°58'0 0.0
2016-Aug-23 22:33N 46°43' W 091°58'0 0.0
2016-Aug-23 21:33N 46°43' W 091°58'0 0.0
2016-Aug-23 20:33N 46°43' W 091°58'0 0.0
2016-Aug-23 19:33N 46°43' W 091°58'0 0.0
2016-Aug-23 18:33N 46°43' W 091°58'0 0.0
2016-Aug-23 17:33N 46°43' W 091°58'0 0.0
2016-Aug-23 16:33N 46°43' W 091°58'0 0.0
2016-Aug-23 15:33N 46°43' W 091°58'0 0.0
2016-Aug-23 14:33N 46°43' W 091°58'0 0.0
2016-Aug-23 13:33N 46°43' W 091°58'0 0.0
2016-Aug-23 12:33N 46°43' W 091°58'0 0.0
2016-Aug-23 11:33N 46°43' W 091°58'0 0.0
2016-Aug-23 10:33N 46°43' W 091°58'0 0.0
2016-Aug-23 09:33N 46°43' W 091°58'0 0.0
2016-Aug-23 08:33N 46°43' W 091°58'0 0.0
2016-Aug-23 07:33N 46°43' W 091°58'0 0.0
2016-Aug-23 06:33N 46°43' W 091°58'0 0.0
2016-Aug-23 05:33N 46°43' W 091°58'0 0.1
2016-Aug-23 04:33N 46°43' W 091°58'4 4.1
2016-Aug-23 03:33N 46°46' W 091°53'6410.7
2016-Aug-22 21:33N 47°11' W 090°27'  
Track history (hours):
 
Tides and Currents Weather Stations Pressure Air Temp Water Temp Dewpoint Dewpoint Depression Visibility Wind Speed Wind Dir Waves Ship Positions

Ken Boothe Sr

Owner: AMERICAN STEAMSHIP COMPANY, WILLIAMSVILLE, NY. More information available from US FCC via Universal Licensing System and Coast Guard Vessel Documentation Center.

Last reported at 2016-Aug-26 18:30 UTC. Time now 2016-Aug-27 11:44 UTC.
Position N 45°52' W 085°09'.

Length 30 m; draft 8.8 m.

Type: Towing. MMSI: 367525230.

Date/timePositionNaut miles runAvg speedWind from/ knotsBaromVisibWave heightAir tempDewpointWater temp
2016-Aug-26 18:30N 45°52' W 085°09'1210.7
2016-Aug-26 17:23N 45°50' W 084°52'293 7.0
2016-Aug-24 23:33N 46°48' W 091°47'1010.4
2016-Aug-24 22:33N 46°43' W 091°60'1 1.2
2016-Aug-24 21:33N 46°42' W 092°01'0 0.0
2016-Aug-24 20:33N 46°42' W 092°01'0 0.0
2016-Aug-24 19:33N 46°42' W 092°01'0 0.0
2016-Aug-24 18:33N 46°42' W 092°01'0 0.0
2016-Aug-24 17:33N 46°42' W 092°01'0 0.0
2016-Aug-24 16:33N 46°42' W 092°01'0 0.0
2016-Aug-24 15:33N 46°42' W 092°01'0 0.0
2016-Aug-24 14:33N 46°42' W 092°01'0 0.0
2016-Aug-24 13:33N 46°42' W 092°01'0 0.0
2016-Aug-24 12:33N 46°42' W 092°01'0 0.0
2016-Aug-24 11:33N 46°42' W 092°01'0 0.0
2016-Aug-24 10:33N 46°42' W 092°01'0 0.0
2016-Aug-24 09:33N 46°42' W 092°01'0 0.0
2016-Aug-24 08:33N 46°42' W 092°01'0 0.1
2016-Aug-24 07:33N 46°42' W 092°01'2 2.2
2016-Aug-24 06:33N 46°43' W 091°58'0 0.0
2016-Aug-24 04:32N 46°43' W 091°58'0 0.0
2016-Aug-24 03:33N 46°43' W 091°58'0 0.0
2016-Aug-24 02:33N 46°43' W 091°58'0 0.0
2016-Aug-24 01:33N 46°43' W 091°58'0 0.0
2016-Aug-24 00:33N 46°43' W 091°58'0 0.0
2016-Aug-23 23:33N 46°43' W 091°58'0 0.0
2016-Aug-23 22:33N 46°43' W 091°58'0 0.0
2016-Aug-23 21:33N 46°43' W 091°58'0 0.0
2016-Aug-23 20:33N 46°43' W 091°58'0 0.0
2016-Aug-23 19:33N 46°43' W 091°58'0 0.0
2016-Aug-23 18:33N 46°43' W 091°58'0 0.0
2016-Aug-23 17:33N 46°43' W 091°58'0 0.0
2016-Aug-23 16:33N 46°43' W 091°58'0 0.0
2016-Aug-23 15:33N 46°43' W 091°58'0 0.0
2016-Aug-23 14:33N 46°43' W 091°58'0 0.0
2016-Aug-23 13:33N 46°43' W 091°58'0 0.0
2016-Aug-23 12:33N 46°43' W 091°58'0 0.0
2016-Aug-23 11:33N 46°43' W 091°58'0 0.0
2016-Aug-23 10:33N 46°43' W 091°58'0 0.0
2016-Aug-23 09:33N 46°43' W 091°58'0 0.0
2016-Aug-23 08:33N 46°43' W 091°58'0 0.0
2016-Aug-23 07:33N 46°43' W 091°58'0 0.0
2016-Aug-23 06:33N 46°43' W 091°58'0 0.0
2016-Aug-23 05:33N 46°43' W 091°58'0 0.1
2016-Aug-23 04:33N 46°43' W 091°58'4 4.1
2016-Aug-23 03:33N 46°46' W 091°53'6410.7
2016-Aug-22 21:33N 47°11' W 090°27'  

Dump ship's entire track history